sensor_id;sensor_type;location;lat;lon;timestamp;temperature;humidity
72126;SHT31;59999;51.676;22.650;2022-10-17T00:00:24;12.28;85.18
72126;SHT31;59999;51.676;22.650;2022-10-17T00:03:10;12.25;85.46
72126;SHT31;59999;51.676;22.650;2022-10-17T00:05:44;12.25;85.52
72126;SHT31;59999;51.676;22.650;2022-10-17T00:08:12;12.22;85.73
72126;SHT31;59999;51.676;22.650;2022-10-17T00:10:38;12.22;85.63
72126;SHT31;59999;51.676;22.650;2022-10-17T00:13:06;12.18;85.64
72126;SHT31;59999;51.676;22.650;2022-10-17T00:15:32;12.15;86.05
72126;SHT31;59999;51.676;22.650;2022-10-17T00:17:58;12.15;86.09
72126;SHT31;59999;51.676;22.650;2022-10-17T00:20:24;12.12;86.11
72126;SHT31;59999;51.676;22.650;2022-10-17T00:22:50;12.10;86.02
72126;SHT31;59999;51.676;22.650;2022-10-17T00:25:18;12.06;86.00
72126;SHT31;59999;51.676;22.650;2022-10-17T00:27:44;12.04;86.29
72126;SHT31;59999;51.676;22.650;2022-10-17T00:30:12;12.08;86.32
72126;SHT31;59999;51.676;22.650;2022-10-17T00:32:38;12.06;86.26
72126;SHT31;59999;51.676;22.650;2022-10-17T00:35:05;12.10;86.32
72126;SHT31;59999;51.676;22.650;2022-10-17T00:37:32;12.14;86.41
72126;SHT31;59999;51.676;22.650;2022-10-17T00:39:58;12.11;86.16
72126;SHT31;59999;51.676;22.650;2022-10-17T00:42:25;12.11;86.16
72126;SHT31;59999;51.676;22.650;2022-10-17T00:45:04;12.10;86.09
72126;SHT31;59999;51.676;22.650;2022-10-17T00:47:31;12.12;86.19
72126;SHT31;59999;51.676;22.650;2022-10-17T00:49:58;12.15;85.95
72126;SHT31;59999;51.676;22.650;2022-10-17T00:52:26;12.06;85.53
72126;SHT31;59999;51.676;22.650;2022-10-17T00:54:56;11.99;86.10
72126;SHT31;59999;51.676;22.650;2022-10-17T00:57:23;11.99;86.54
72126;SHT31;59999;51.676;22.650;2022-10-17T00:59:52;12.04;86.63
72126;SHT31;59999;51.676;22.650;2022-10-17T01:02:21;12.08;86.39
72126;SHT31;59999;51.676;22.650;2022-10-17T01:04:49;12.10;86.18
72126;SHT31;59999;51.676;22.650;2022-10-17T01:07:16;12.05;86.05
72126;SHT31;59999;51.676;22.650;2022-10-17T01:09:44;12.06;85.80
72126;SHT31;59999;51.676;22.650;2022-10-17T01:12:25;12.01;85.65
72126;SHT31;59999;51.676;22.650;2022-10-17T01:18:31;11.81;86.74
72126;SHT31;59999;51.676;22.650;2022-10-17T01:32:22;11.91;86.81
72126;SHT31;59999;51.676;22.650;2022-10-17T01:34:58;11.90;86.99
72126;SHT31;59999;51.676;22.650;2022-10-17T01:37:33;11.87;86.54
72126;SHT31;59999;51.676;22.650;2022-10-17T01:40:09;11.81;86.44
72126;SHT31;59999;51.676;22.650;2022-10-17T01:45:52;11.53;87.21
72126;SHT31;59999;51.676;22.650;2022-10-17T01:48:24;11.46;87.42
72126;SHT31;59999;51.676;22.650;2022-10-17T01:50:58;11.46;87.69
72126;SHT31;59999;51.676;22.650;2022-10-17T01:53:33;11.52;87.81
72126;SHT31;59999;51.676;22.650;2022-10-17T01:56:01;11.53;87.78
72126;SHT31;59999;51.676;22.650;2022-10-17T01:58:32;11.50;87.58
72126;SHT31;59999;51.676;22.650;2022-10-17T02:01:04;11.47;87.69
72126;SHT31;59999;51.676;22.650;2022-10-17T02:03:32;11.42;87.87
72126;SHT31;59999;51.676;22.650;2022-10-17T02:05:59;11.39;87.71
72126;SHT31;59999;51.676;22.650;2022-10-17T02:08:27;11.33;87.77
72126;SHT31;59999;51.676;22.650;2022-10-17T02:11:02;11.25;87.90
72126;SHT31;59999;51.676;22.650;2022-10-17T02:13:54;11.20;88.36
72126;SHT31;59999;51.676;22.650;2022-10-17T02:22:15;11.26;88.92
72126;SHT31;59999;51.676;22.650;2022-10-17T02:27:16;11.30;88.92
72126;SHT31;59999;51.676;22.650;2022-10-17T02:30:00;11.33;88.76
72126;SHT31;59999;51.676;22.650;2022-10-17T02:32:35;11.33;88.42
72126;SHT31;59999;51.676;22.650;2022-10-17T02:35:07;11.29;88.14
72126;SHT31;59999;51.676;22.650;2022-10-17T02:37:35;11.30;87.99
72126;SHT31;59999;51.676;22.650;2022-10-17T02:40:02;11.25;87.98
72126;SHT31;59999;51.676;22.650;2022-10-17T02:42:30;11.20;88.13
72126;SHT31;59999;51.676;22.650;2022-10-17T02:44:59;11.18;88.16
72126;SHT31;59999;51.676;22.650;2022-10-17T02:48:33;11.15;88.26
72126;SHT31;59999;51.676;22.650;2022-10-17T02:53:24;10.99;88.39
72126;SHT31;59999;51.676;22.650;2022-10-17T02:55:57;10.94;88.70
72126;SHT31;59999;51.676;22.650;2022-10-17T02:58:27;10.89;89.19
72126;SHT31;59999;51.676;22.650;2022-10-17T03:00:55;10.88;89.31
72126;SHT31;59999;51.676;22.650;2022-10-17T03:03:28;10.84;89.46
72126;SHT31;59999;51.676;22.650;2022-10-17T03:05:54;10.81;89.55
72126;SHT31;59999;51.676;22.650;2022-10-17T03:08:20;10.77;89.77
72126;SHT31;59999;51.676;22.650;2022-10-17T03:10:47;10.74;89.98
72126;SHT31;59999;51.676;22.650;2022-10-17T03:13:14;10.77;90.05
72126;SHT31;59999;51.676;22.650;2022-10-17T03:15:41;10.74;90.12
72126;SHT31;59999;51.676;22.650;2022-10-17T03:18:06;10.74;90.12
72126;SHT31;59999;51.676;22.650;2022-10-17T03:20:33;10.75;90.10
72126;SHT31;59999;51.676;22.650;2022-10-17T03:22:59;10.79;90.28
72126;SHT31;59999;51.676;22.650;2022-10-17T03:25:25;10.79;90.44
72126;SHT31;59999;51.676;22.650;2022-10-17T03:27:51;10.85;89.98
72126;SHT31;59999;51.676;22.650;2022-10-17T03:30:18;10.84;89.50
72126;SHT31;59999;51.676;22.650;2022-10-17T03:32:44;10.79;89.50
72126;SHT31;59999;51.676;22.650;2022-10-17T03:35:10;10.77;90.06
72126;SHT31;59999;51.676;22.650;2022-10-17T03:37:36;10.74;89.96
72126;SHT31;59999;51.676;22.650;2022-10-17T03:40:02;10.74;90.34
72126;SHT31;59999;51.676;22.650;2022-10-17T03:42:28;10.74;90.44
72126;SHT31;59999;51.676;22.650;2022-10-17T03:44:54;10.77;89.89
72126;SHT31;59999;51.676;22.650;2022-10-17T03:47:20;10.72;89.73
72126;SHT31;59999;51.676;22.650;2022-10-17T03:49:46;10.72;90.03
72126;SHT31;59999;51.676;22.650;2022-10-17T03:52:12;10.67;89.55
72126;SHT31;59999;51.676;22.650;2022-10-17T03:54:38;10.65;90.08
72126;SHT31;59999;51.676;22.650;2022-10-17T03:57:04;10.61;90.49
72126;SHT31;59999;51.676;22.650;2022-10-17T03:59:30;10.63;90.49
72126;SHT31;59999;51.676;22.650;2022-10-17T04:01:56;10.63;90.55
72126;SHT31;59999;51.676;22.650;2022-10-17T04:04:22;10.65;90.55
72126;SHT31;59999;51.676;22.650;2022-10-17T04:06:48;10.64;90.76
72126;SHT31;59999;51.676;22.650;2022-10-17T04:09:14;10.71;90.85
72126;SHT31;59999;51.676;22.650;2022-10-17T04:11:40;10.74;90.99
72126;SHT31;59999;51.676;22.650;2022-10-17T04:14:06;10.81;90.57
72126;SHT31;59999;51.676;22.650;2022-10-17T04:16:32;10.81;89.89
72126;SHT31;59999;51.676;22.650;2022-10-17T04:18:59;10.77;89.78
72126;SHT31;59999;51.676;22.650;2022-10-17T04:21:26;10.74;90.45
72126;SHT31;59999;51.676;22.650;2022-10-17T04:23:53;10.79;90.50
72126;SHT31;59999;51.676;22.650;2022-10-17T04:26:19;10.87;90.35
72126;SHT31;59999;51.676;22.650;2022-10-17T04:28:49;10.91;90.04
72126;SHT31;59999;51.676;22.650;2022-10-17T04:31:15;10.91;89.96
72126;SHT31;59999;51.676;22.650;2022-10-17T04:33:41;10.91;89.95
72126;SHT31;59999;51.676;22.650;2022-10-17T04:36:12;10.89;89.99
72126;SHT31;59999;51.676;22.650;2022-10-17T04:38:39;10.92;89.89
72126;SHT31;59999;51.676;22.650;2022-10-17T04:41:08;10.95;89.77
72126;SHT31;59999;51.676;22.650;2022-10-17T04:43:36;10.96;89.70
72126;SHT31;59999;51.676;22.650;2022-10-17T04:46:05;10.99;89.60
72126;SHT31;59999;51.676;22.650;2022-10-17T04:48:32;10.99;89.68
72126;SHT31;59999;51.676;22.650;2022-10-17T04:51:06;10.98;89.70
72126;SHT31;59999;51.676;22.650;2022-10-17T04:53:35;10.95;89.67
72126;SHT31;59999;51.676;22.650;2022-10-17T04:56:06;10.94;89.95
72126;SHT31;59999;51.676;22.650;2022-10-17T04:58:33;10.94;89.96
72126;SHT31;59999;51.676;22.650;2022-10-17T05:00:58;10.92;89.88
72126;SHT31;59999;51.676;22.650;2022-10-17T05:03:28;10.89;89.87
72126;SHT31;59999;51.676;22.650;2022-10-17T05:05:54;10.85;89.83
72126;SHT31;59999;51.676;22.650;2022-10-17T05:08:20;10.87;90.03
72126;SHT31;59999;51.676;22.650;2022-10-17T05:10:46;10.82;90.20
72126;SHT31;59999;51.676;22.650;2022-10-17T05:13:12;10.84;90.10
72126;SHT31;59999;51.676;22.650;2022-10-17T05:15:38;10.82;89.90
72126;SHT31;59999;51.676;22.650;2022-10-17T05:18:05;10.79;89.25
72126;SHT31;59999;51.676;22.650;2022-10-17T05:20:31;10.72;89.67
72126;SHT31;59999;51.676;22.650;2022-10-17T05:22:59;10.65;90.10
72126;SHT31;59999;51.676;22.650;2022-10-17T05:25:25;10.65;90.64
72126;SHT31;59999;51.676;22.650;2022-10-17T05:27:51;10.68;90.63
72126;SHT31;59999;51.676;22.650;2022-10-17T05:30:17;10.78;90.75
72126;SHT31;59999;51.676;22.650;2022-10-17T05:32:43;10.82;90.58
72126;SHT31;59999;51.676;22.650;2022-10-17T05:35:09;10.85;90.55
72126;SHT31;59999;51.676;22.650;2022-10-17T05:37:36;10.92;90.25
72126;SHT31;59999;51.676;22.650;2022-10-17T05:40:02;10.99;90.20
72126;SHT31;59999;51.676;22.650;2022-10-17T05:42:29;11.05;90.19
72126;SHT31;59999;51.676;22.650;2022-10-17T05:44:55;11.09;90.25
72126;SHT31;59999;51.676;22.650;2022-10-17T05:47:22;11.18;90.11
72126;SHT31;59999;51.676;22.650;2022-10-17T05:49:47;11.22;90.03
72126;SHT31;59999;51.676;22.650;2022-10-17T05:52:13;11.25;89.94
72126;SHT31;59999;51.676;22.650;2022-10-17T05:54:39;11.32;89.87
72126;SHT31;59999;51.676;22.650;2022-10-17T05:57:05;11.42;89.90
72126;SHT31;59999;51.676;22.650;2022-10-17T05:59:31;11.47;89.44
72126;SHT31;59999;51.676;22.650;2022-10-17T06:01:57;11.57;89.03
72126;SHT31;59999;51.676;22.650;2022-10-17T06:04:23;11.64;88.83
72126;SHT31;59999;51.676;22.650;2022-10-17T06:06:49;11.69;88.85
72126;SHT31;59999;51.676;22.650;2022-10-17T06:09:15;11.74;88.72
72126;SHT31;59999;51.676;22.650;2022-10-17T06:11:41;11.81;88.34
72126;SHT31;59999;51.676;22.650;2022-10-17T06:14:07;11.87;88.75
72126;SHT31;59999;51.676;22.650;2022-10-17T06:16:33;11.88;88.58
72126;SHT31;59999;51.676;22.650;2022-10-17T06:18:59;11.97;88.39
72126;SHT31;59999;51.676;22.650;2022-10-17T06:21:26;12.04;88.15
72126;SHT31;59999;51.676;22.650;2022-10-17T06:23:52;12.08;87.70
72126;SHT31;59999;51.676;22.650;2022-10-17T06:26:18;12.15;87.70
72126;SHT31;59999;51.676;22.650;2022-10-17T06:28:44;12.26;87.62
72126;SHT31;59999;51.676;22.650;2022-10-17T06:31:13;12.36;87.33
72126;SHT31;59999;51.676;22.650;2022-10-17T06:33:40;12.43;86.59
72126;SHT31;59999;51.676;22.650;2022-10-17T06:36:09;12.52;86.25
72126;SHT31;59999;51.676;22.650;2022-10-17T06:38:35;12.62;86.45
72126;SHT31;59999;51.676;22.650;2022-10-17T06:41:05;12.70;85.94
72126;SHT31;59999;51.676;22.650;2022-10-17T06:43:36;12.79;85.44
72126;SHT31;59999;51.676;22.650;2022-10-17T06:46:03;12.87;85.28
72126;SHT31;59999;51.676;22.650;2022-10-17T06:48:29;12.99;84.66
72126;SHT31;59999;51.676;22.650;2022-10-17T06:51:02;13.00;83.98
72126;SHT31;59999;51.676;22.650;2022-10-17T06:53:32;13.06;84.24
72126;SHT31;59999;51.676;22.650;2022-10-17T06:55:59;13.14;84.27
72126;SHT31;59999;51.676;22.650;2022-10-17T06:58:30;13.21;83.67
72126;SHT31;59999;51.676;22.650;2022-10-17T07:00:58;13.22;83.54
72126;SHT31;59999;51.676;22.650;2022-10-17T07:03:24;13.25;83.87
72126;SHT31;59999;51.676;22.650;2022-10-17T07:05:51;13.29;84.04
72126;SHT31;59999;51.676;22.650;2022-10-17T07:08:17;13.39;83.72
72126;SHT31;59999;51.676;22.650;2022-10-17T07:10:43;13.49;83.41
72126;SHT31;59999;51.676;22.650;2022-10-17T07:13:09;13.55;83.35
72126;SHT31;59999;51.676;22.650;2022-10-17T07:15:36;13.69;83.03
72126;SHT31;59999;51.676;22.650;2022-10-17T07:18:02;13.76;83.41
72126;SHT31;59999;51.676;22.650;2022-10-17T07:20:28;13.93;82.44
72126;SHT31;59999;51.676;22.650;2022-10-17T07:22:54;14.02;81.85
72126;SHT31;59999;51.676;22.650;2022-10-17T07:25:20;14.09;82.41
72126;SHT31;59999;51.676;22.650;2022-10-17T07:27:50;14.16;82.24
72126;SHT31;59999;51.676;22.650;2022-10-17T07:30:17;14.24;82.07
72126;SHT31;59999;51.676;22.650;2022-10-17T07:32:42;14.34;81.50
72126;SHT31;59999;51.676;22.650;2022-10-17T07:35:10;14.51;81.64
72126;SHT31;59999;51.676;22.650;2022-10-17T07:37:36;14.63;81.02
72126;SHT31;59999;51.676;22.650;2022-10-17T07:40:04;14.74;81.02
72126;SHT31;59999;51.676;22.650;2022-10-17T07:42:32;14.88;79.63
72126;SHT31;59999;51.676;22.650;2022-10-17T07:44:58;14.95;80.32
72126;SHT31;59999;51.676;22.650;2022-10-17T07:47:24;15.03;80.31
72126;SHT31;59999;51.676;22.650;2022-10-17T07:49:50;15.14;80.01
72126;SHT31;59999;51.676;22.650;2022-10-17T07:52:16;15.27;80.00
72126;SHT31;59999;51.676;22.650;2022-10-17T07:54:42;15.36;79.84
72126;SHT31;59999;51.676;22.650;2022-10-17T07:57:09;15.41;78.10
72126;SHT31;59999;51.676;22.650;2022-10-17T07:59:36;15.49;78.68
72126;SHT31;59999;51.676;22.650;2022-10-17T08:02:03;15.54;77.89
72126;SHT31;59999;51.676;22.650;2022-10-17T08:04:29;15.58;78.74
72126;SHT31;59999;51.676;22.650;2022-10-17T08:06:55;15.68;78.21
72126;SHT31;59999;51.676;22.650;2022-10-17T08:09:21;15.75;77.61
72126;SHT31;59999;51.676;22.650;2022-10-17T08:11:47;15.80;77.69
72126;SHT31;59999;51.676;22.650;2022-10-17T08:14:14;15.85;76.92
72126;SHT31;59999;51.676;22.650;2022-10-17T08:16:41;15.92;77.27
72126;SHT31;59999;51.676;22.650;2022-10-17T08:19:07;15.97;77.10
72126;SHT31;59999;51.676;22.650;2022-10-17T08:21:36;16.11;77.30
72126;SHT31;59999;51.676;22.650;2022-10-17T08:24:03;16.20;77.36
72126;SHT31;59999;51.676;22.650;2022-10-17T08:26:29;16.36;76.38
72126;SHT31;59999;51.676;22.650;2022-10-17T08:28:55;16.49;76.29
72126;SHT31;59999;51.676;22.650;2022-10-17T08:31:21;16.61;75.73
72126;SHT31;59999;51.676;22.650;2022-10-17T08:33:49;16.73;74.87
72126;SHT31;59999;51.676;22.650;2022-10-17T08:36:17;16.81;75.51
72126;SHT31;59999;51.676;22.650;2022-10-17T08:38:44;16.89;74.82
72126;SHT31;59999;51.676;22.650;2022-10-17T08:46:33;17.19;74.36
72126;SHT31;59999;51.676;22.650;2022-10-17T08:49:01;17.28;73.97
72126;SHT31;59999;51.676;22.650;2022-10-17T08:51:36;17.38;73.10
72126;SHT31;59999;51.676;22.650;2022-10-17T08:54:13;17.49;72.77
72126;SHT31;59999;51.676;22.650;2022-10-17T08:56:47;17.50;72.16
72126;SHT31;59999;51.676;22.650;2022-10-17T08:59:17;17.53;72.71
72126;SHT31;59999;51.676;22.650;2022-10-17T09:07:03;17.72;71.08
72126;SHT31;59999;51.676;22.650;2022-10-17T09:09:41;17.84;73.25
72126;SHT31;59999;51.676;22.650;2022-10-17T09:12:21;17.91;72.16
72126;SHT31;59999;51.676;22.650;2022-10-17T09:17:57;18.03;70.92
72126;SHT31;59999;51.676;22.650;2022-10-17T09:20:35;18.08;69.87
72126;SHT31;59999;51.676;22.650;2022-10-17T09:23:05;18.14;69.33
72126;SHT31;59999;51.676;22.650;2022-10-17T09:25:42;18.25;69.64
72126;SHT31;59999;51.676;22.650;2022-10-17T09:33:14;18.40;69.76
72126;SHT31;59999;51.676;22.650;2022-10-17T09:35:41;18.47;68.86
72126;SHT31;59999;51.676;22.650;2022-10-17T09:38:14;18.52;68.27
72126;SHT31;59999;51.676;22.650;2022-10-17T09:40:41;18.58;68.39
72126;SHT31;59999;51.676;22.650;2022-10-17T09:43:11;18.56;68.17
72126;SHT31;59999;51.676;22.650;2022-10-17T09:46:16;18.53;68.40
72126;SHT31;59999;51.676;22.650;2022-10-17T09:48:39;18.56;68.57
72126;SHT31;59999;51.676;22.650;2022-10-17T09:51:06;18.68;68.55
72126;SHT31;59999;51.676;22.650;2022-10-17T09:53:36;18.72;68.78
72126;SHT31;59999;51.676;22.650;2022-10-17T09:56:07;18.83;69.04
72126;SHT31;59999;51.676;22.650;2022-10-17T09:58:48;18.92;68.17
72126;SHT31;59999;51.676;22.650;2022-10-17T10:01:20;18.99;67.74
72126;SHT31;59999;51.676;22.650;2022-10-17T10:03:47;19.06;67.66
72126;SHT31;59999;51.676;22.650;2022-10-17T10:06:18;19.21;67.35
72126;SHT31;59999;51.676;22.650;2022-10-17T10:08:53;19.31;67.52
72126;SHT31;59999;51.676;22.650;2022-10-17T10:16:48;19.47;66.67
72126;SHT31;59999;51.676;22.650;2022-10-17T10:19:36;19.53;67.51
72126;SHT31;59999;51.676;22.650;2022-10-17T10:22:17;19.64;64.76
72126;SHT31;59999;51.676;22.650;2022-10-17T10:24:43;19.72;65.10
72126;SHT31;59999;51.676;22.650;2022-10-17T10:27:15;19.82;66.40
72126;SHT31;59999;51.676;22.650;2022-10-17T10:29:50;19.92;65.38
72126;SHT31;59999;51.676;22.650;2022-10-17T10:32:34;19.99;65.45
72126;SHT31;59999;51.676;22.650;2022-10-17T10:35:02;20.12;65.31
72126;SHT31;59999;51.676;22.650;2022-10-17T10:40:05;20.29;64.49
72126;SHT31;59999;51.676;22.650;2022-10-17T10:42:32;20.37;63.98
72126;SHT31;59999;51.676;22.650;2022-10-17T10:45:16;20.48;63.40
72126;SHT31;59999;51.676;22.650;2022-10-17T10:47:57;20.57;63.40
72126;SHT31;59999;51.676;22.650;2022-10-17T10:50:35;20.63;62.05
72126;SHT31;59999;51.676;22.650;2022-10-17T10:55:49;20.70;61.85
72126;SHT31;59999;51.676;22.650;2022-10-17T10:58:33;20.65;62.21
72126;SHT31;59999;51.676;22.650;2022-10-17T11:01:09;20.60;61.63
72126;SHT31;59999;51.676;22.650;2022-10-17T11:03:44;20.60;61.70
72126;SHT31;59999;51.676;22.650;2022-10-17T11:06:18;20.63;61.93
72126;SHT31;59999;51.676;22.650;2022-10-17T11:08:49;20.68;62.81
72126;SHT31;59999;51.676;22.650;2022-10-17T11:11:35;20.80;61.07
72126;SHT31;59999;51.676;22.650;2022-10-17T11:14:22;20.74;61.80
72126;SHT31;59999;51.676;22.650;2022-10-17T11:17:02;20.81;61.73
72126;SHT31;59999;51.676;22.650;2022-10-17T11:19:36;20.87;61.48
72126;SHT31;59999;51.676;22.650;2022-10-17T11:22:15;20.95;61.23
72126;SHT31;59999;51.676;22.650;2022-10-17T11:24:51;21.02;60.75
72126;SHT31;59999;51.676;22.650;2022-10-17T11:27:23;21.06;61.44
72126;SHT31;59999;51.676;22.650;2022-10-17T11:29:50;21.08;61.17
72126;SHT31;59999;51.676;22.650;2022-10-17T11:34:55;21.04;59.89
72126;SHT31;59999;51.676;22.650;2022-10-17T11:37:31;21.11;61.03
72126;SHT31;59999;51.676;22.650;2022-10-17T11:40:15;21.16;60.63
72126;SHT31;59999;51.676;22.650;2022-10-17T11:43:03;21.26;60.69
72126;SHT31;59999;51.676;22.650;2022-10-17T11:45:38;21.32;60.15
72126;SHT31;59999;51.676;22.650;2022-10-17T11:48:16;21.33;59.26
72126;SHT31;59999;51.676;22.650;2022-10-17T11:50:47;21.38;59.43
72126;SHT31;59999;51.676;22.650;2022-10-17T11:53:26;21.38;60.17
72126;SHT31;59999;51.676;22.650;2022-10-17T11:55:55;21.41;60.35
72126;SHT31;59999;51.676;22.650;2022-10-17T12:01:33;21.33;59.07
72126;SHT31;59999;51.676;22.650;2022-10-17T12:06:50;21.43;59.70
72126;SHT31;59999;51.676;22.650;2022-10-17T12:09:45;21.49;61.34
72126;SHT31;59999;51.676;22.650;2022-10-17T12:12:26;21.43;60.15
72126;SHT31;59999;51.676;22.650;2022-10-17T12:14:52;21.36;59.57
72126;SHT31;59999;51.676;22.650;2022-10-17T12:17:27;21.31;59.91
72126;SHT31;59999;51.676;22.650;2022-10-17T12:22:46;21.21;60.48
72126;SHT31;59999;51.676;22.650;2022-10-17T12:25:35;21.21;59.54
72126;SHT31;59999;51.676;22.650;2022-10-17T12:31:20;21.39;60.00
72126;SHT31;59999;51.676;22.650;2022-10-17T12:33:51;21.56;59.77
72126;SHT31;59999;51.676;22.650;2022-10-17T12:49:48;22.01;57.32
72126;SHT31;59999;51.676;22.650;2022-10-17T12:55:15;21.94;56.47
72126;SHT31;59999;51.676;22.650;2022-10-17T13:00:22;21.90;58.14
72126;SHT31;59999;51.676;22.650;2022-10-17T13:02:54;21.89;59.04
72126;SHT31;59999;51.676;22.650;2022-10-17T13:05:29;21.91;59.43
72126;SHT31;59999;51.676;22.650;2022-10-17T13:07:58;21.86;57.16
72126;SHT31;59999;51.676;22.650;2022-10-17T13:10:28;21.77;56.92
72126;SHT31;59999;51.676;22.650;2022-10-17T13:13:19;21.77;57.68
72126;SHT31;59999;51.676;22.650;2022-10-17T13:15:47;21.76;58.54
72126;SHT31;59999;51.676;22.650;2022-10-17T13:18:24;21.69;57.71
72126;SHT31;59999;51.676;22.650;2022-10-17T13:20:59;21.62;58.19
72126;SHT31;59999;51.676;22.650;2022-10-17T13:23:32;21.56;57.41
72126;SHT31;59999;51.676;22.650;2022-10-17T13:26:20;21.53;58.92
72126;SHT31;59999;51.676;22.650;2022-10-17T13:29:12;21.49;58.12
72126;SHT31;59999;51.676;22.650;2022-10-17T13:31:41;21.47;59.13
72126;SHT31;59999;51.676;22.650;2022-10-17T13:34:24;21.53;59.60
72126;SHT31;59999;51.676;22.650;2022-10-17T13:36:56;21.52;59.80
72126;SHT31;59999;51.676;22.650;2022-10-17T13:39:24;21.57;60.69
72126;SHT31;59999;51.676;22.650;2022-10-17T13:41:52;21.59;60.73
72126;SHT31;59999;51.676;22.650;2022-10-17T13:44:21;21.60;60.37
72126;SHT31;59999;51.676;22.650;2022-10-17T13:46:48;21.56;60.08
72126;SHT31;59999;51.676;22.650;2022-10-17T13:51:45;21.52;60.68
72126;SHT31;59999;51.676;22.650;2022-10-17T13:56:57;21.47;61.29
72126;SHT31;59999;51.676;22.650;2022-10-17T13:59:43;21.38;61.38
72126;SHT31;59999;51.676;22.650;2022-10-17T14:02:15;21.28;60.65
72126;SHT31;59999;51.676;22.650;2022-10-17T14:04:41;21.22;61.27
72126;SHT31;59999;51.676;22.650;2022-10-17T14:07:42;21.12;61.91
72126;SHT31;59999;51.676;22.650;2022-10-17T14:12:59;21.02;62.44
72126;SHT31;59999;51.676;22.650;2022-10-17T14:15:29;20.92;63.14
72126;SHT31;59999;51.676;22.650;2022-10-17T14:17:59;20.77;64.15
72126;SHT31;59999;51.676;22.650;2022-10-17T14:20:26;20.70;62.99
72126;SHT31;59999;51.676;22.650;2022-10-17T14:22:57;20.63;63.38
72126;SHT31;59999;51.676;22.650;2022-10-17T14:25:34;20.53;64.32
72126;SHT31;59999;51.676;22.650;2022-10-17T14:28:13;20.41;64.30
72126;SHT31;59999;51.676;22.650;2022-10-17T14:30:47;20.33;63.71
72126;SHT31;59999;51.676;22.650;2022-10-17T14:33:30;20.22;65.14
72126;SHT31;59999;51.676;22.650;2022-10-17T14:35:57;20.12;64.96
72126;SHT31;59999;51.676;22.650;2022-10-17T14:38:25;20.04;65.37
72126;SHT31;59999;51.676;22.650;2022-10-17T14:40:57;19.98;65.65
72126;SHT31;59999;51.676;22.650;2022-10-17T14:43:27;19.86;65.91
72126;SHT31;59999;51.676;22.650;2022-10-17T14:45:59;19.75;66.61
72126;SHT31;59999;51.676;22.650;2022-10-17T14:48:27;19.64;66.83
72126;SHT31;59999;51.676;22.650;2022-10-17T14:53:39;19.38;68.00
72126;SHT31;59999;51.676;22.650;2022-10-17T14:56:41;19.23;68.46
72126;SHT31;59999;51.676;22.650;2022-10-17T14:59:07;19.13;68.79
72126;SHT31;59999;51.676;22.650;2022-10-17T15:01:36;19.00;69.20
72126;SHT31;59999;51.676;22.650;2022-10-17T15:04:02;18.85;69.84
72126;SHT31;59999;51.676;22.650;2022-10-17T15:06:32;18.66;70.40
72126;SHT31;59999;51.676;22.650;2022-10-17T15:08:58;18.49;71.00
72126;SHT31;59999;51.676;22.650;2022-10-17T15:11:24;18.30;71.51
72126;SHT31;59999;51.676;22.650;2022-10-17T15:13:50;18.13;71.98
72126;SHT31;59999;51.676;22.650;2022-10-17T15:16:22;17.98;72.41
72126;SHT31;59999;51.676;22.650;2022-10-17T15:18:49;17.82;72.82
72126;SHT31;59999;51.676;22.650;2022-10-17T15:21:17;17.67;73.33
72126;SHT31;59999;51.676;22.650;2022-10-17T15:23:44;17.57;73.62
72126;SHT31;59999;51.676;22.650;2022-10-17T15:26:23;17.46;73.96
72126;SHT31;59999;51.676;22.650;2022-10-17T15:28:50;17.32;74.47
72126;SHT31;59999;51.676;22.650;2022-10-17T15:31:19;17.21;74.80
72126;SHT31;59999;51.676;22.650;2022-10-17T15:33:46;17.11;75.25
72126;SHT31;59999;51.676;22.650;2022-10-17T15:36:24;17.01;75.28
72126;SHT31;59999;51.676;22.650;2022-10-17T15:38:52;16.92;75.64
72126;SHT31;59999;51.676;22.650;2022-10-17T15:41:20;16.83;76.12
72126;SHT31;59999;51.676;22.650;2022-10-17T15:43:47;16.73;76.46
72126;SHT31;59999;51.676;22.650;2022-10-17T15:46:22;16.64;76.70
72126;SHT31;59999;51.676;22.650;2022-10-17T15:48:50;16.59;76.87
72126;SHT31;59999;51.676;22.650;2022-10-17T15:51:16;16.55;77.12
72126;SHT31;59999;51.676;22.650;2022-10-17T15:53:43;16.50;77.20
72126;SHT31;59999;51.676;22.650;2022-10-17T15:56:22;16.46;77.43
72126;SHT31;59999;51.676;22.650;2022-10-17T15:58:48;16.36;77.43
72126;SHT31;59999;51.676;22.650;2022-10-17T16:01:22;16.26;77.62
72126;SHT31;59999;51.676;22.650;2022-10-17T16:03:49;16.15;77.74
72126;SHT31;59999;51.676;22.650;2022-10-17T16:06:20;16.05;78.03
72126;SHT31;59999;51.676;22.650;2022-10-17T16:08:47;15.97;78.30
72126;SHT31;59999;51.676;22.650;2022-10-17T16:13:52;15.81;78.71
72126;SHT31;59999;51.676;22.650;2022-10-17T16:16:19;15.75;79.20
72126;SHT31;59999;51.676;22.650;2022-10-17T16:18:47;15.72;79.51
72126;SHT31;59999;51.676;22.650;2022-10-17T16:21:14;15.77;79.80
72126;SHT31;59999;51.676;22.650;2022-10-17T16:23:41;15.71;79.90
72126;SHT31;59999;51.676;22.650;2022-10-17T16:26:08;15.67;79.82
72126;SHT31;59999;51.676;22.650;2022-10-17T16:28:34;15.57;79.90
72126;SHT31;59999;51.676;22.650;2022-10-17T16:31:00;15.44;80.34
72126;SHT31;59999;51.676;22.650;2022-10-17T16:33:26;15.36;80.94
72126;SHT31;59999;51.676;22.650;2022-10-17T16:35:52;15.32;81.59
72126;SHT31;59999;51.676;22.650;2022-10-17T16:38:18;15.26;81.74
72126;SHT31;59999;51.676;22.650;2022-10-17T16:40:44;15.22;82.05
72126;SHT31;59999;51.676;22.650;2022-10-17T16:43:11;15.10;82.10
72126;SHT31;59999;51.676;22.650;2022-10-17T16:45:37;15.00;82.81
72126;SHT31;59999;51.676;22.650;2022-10-17T16:48:04;14.95;82.78
72126;SHT31;59999;51.676;22.650;2022-10-17T16:50:30;14.89;82.97
72126;SHT31;59999;51.676;22.650;2022-10-17T16:53:00;14.88;83.26
72126;SHT31;59999;51.676;22.650;2022-10-17T16:55:28;14.88;83.29
72126;SHT31;59999;51.676;22.650;2022-10-17T16:57:54;14.85;83.37
72126;SHT31;59999;51.676;22.650;2022-10-17T17:00:20;14.85;83.45
72126;SHT31;59999;51.676;22.650;2022-10-17T17:02:46;14.81;83.40
72126;SHT31;59999;51.676;22.650;2022-10-17T17:05:12;14.75;83.50
72126;SHT31;59999;51.676;22.650;2022-10-17T17:07:38;14.71;83.92
72126;SHT31;59999;51.676;22.650;2022-10-17T17:10:05;14.69;84.09
72126;SHT31;59999;51.676;22.650;2022-10-17T17:12:33;14.68;84.10
72126;SHT31;59999;51.676;22.650;2022-10-17T17:14:59;14.69;84.28
72126;SHT31;59999;51.676;22.650;2022-10-17T17:17:25;14.67;84.06